sensor_id;sensor_type;location;lat;lon;timestamp;temperature;humidity
62154;DHT22;48140;45.486;9.226;2023-07-22T00:00:20;23.60;98.00
62154;DHT22;48140;45.486;9.226;2023-07-22T00:02:48;23.50;98.20
62154;DHT22;48140;45.486;9.226;2023-07-22T00:05:13;23.50;98.20
62154;DHT22;48140;45.486;9.226;2023-07-22T00:07:39;23.50;98.10
62154;DHT22;48140;45.486;9.226;2023-07-22T00:10:06;23.50;97.90
62154;DHT22;48140;45.486;9.226;2023-07-22T00:12:33;23.50;97.80
62154;DHT22;48140;45.486;9.226;2023-07-22T00:14:58;23.50;97.60
62154;DHT22;48140;45.486;9.226;2023-07-22T00:17:24;23.50;97.70
62154;DHT22;48140;45.486;9.226;2023-07-22T00:19:50;23.40;97.70
62154;DHT22;48140;45.486;9.226;2023-07-22T00:38:13;23.40;97.40
62154;DHT22;48140;45.486;9.226;2023-07-22T00:40:38;23.40;97.70
62154;DHT22;48140;45.486;9.226;2023-07-22T00:43:04;23.40;97.30
62154;DHT22;48140;45.486;9.226;2023-07-22T00:45:32;23.40;97.60
62154;DHT22;48140;45.486;9.226;2023-07-22T00:47:58;23.20;97.90
62154;DHT22;48140;45.486;9.226;2023-07-22T00:50:23;23.30;98.10
62154;DHT22;48140;45.486;9.226;2023-07-22T00:52:49;23.20;99.00
62154;DHT22;48140;45.486;9.226;2023-07-22T00:55:18;23.20;98.50
62154;DHT22;48140;45.486;9.226;2023-07-22T00:57:43;23.20;98.80
62154;DHT22;48140;45.486;9.226;2023-07-22T01:00:09;23.10;99.00
62154;DHT22;48140;45.486;9.226;2023-07-22T01:05:02;23.20;98.90
62154;DHT22;48140;45.486;9.226;2023-07-22T01:07:28;23.20;98.90
62154;DHT22;48140;45.486;9.226;2023-07-22T01:09:57;23.20;98.80
62154;DHT22;48140;45.486;9.226;2023-07-22T01:12:25;23.30;98.90
62154;DHT22;48140;45.486;9.226;2023-07-22T01:14:51;23.20;99.10
62154;DHT22;48140;45.486;9.226;2023-07-22T01:17:17;23.20;99.00
62154;DHT22;48140;45.486;9.226;2023-07-22T01:19:43;23.10;99.10
62154;DHT22;48140;45.486;9.226;2023-07-22T01:22:09;23.10;99.40
62154;DHT22;48140;45.486;9.226;2023-07-22T01:24:36;23.10;99.30
62154;DHT22;48140;45.486;9.226;2023-07-22T01:27:03;23.00;99.60
62154;DHT22;48140;45.486;9.226;2023-07-22T01:29:33;23.00;99.70
62154;DHT22;48140;45.486;9.226;2023-07-22T01:31:59;23.00;99.80
62154;DHT22;48140;45.486;9.226;2023-07-22T01:34:26;23.00;99.80
62154;DHT22;48140;45.486;9.226;2023-07-22T01:36:52;23.00;99.80
62154;DHT22;48140;45.486;9.226;2023-07-22T01:39:18;23.00;99.90
62154;DHT22;48140;45.486;9.226;2023-07-22T01:41:47;23.00;99.90
62154;DHT22;48140;45.486;9.226;2023-07-22T01:44:13;23.00;99.80
62154;DHT22;48140;45.486;9.226;2023-07-22T01:46:39;23.00;99.90
62154;DHT22;48140;45.486;9.226;2023-07-22T01:49:05;22.90;99.90
62154;DHT22;48140;45.486;9.226;2023-07-22T01:51:33;23.00;99.90
62154;DHT22;48140;45.486;9.226;2023-07-22T01:53:59;22.90;99.90
62154;DHT22;48140;45.486;9.226;2023-07-22T01:56:25;22.90;99.90
62154;DHT22;48140;45.486;9.226;2023-07-22T01:58:50;23.00;99.90
62154;DHT22;48140;45.486;9.226;2023-07-22T02:01:16;22.90;99.90
62154;DHT22;48140;45.486;9.226;2023-07-22T02:03:42;22.90;99.90
62154;DHT22;48140;45.486;9.226;2023-07-22T02:06:07;22.90;99.90
62154;DHT22;48140;45.486;9.226;2023-07-22T02:08:33;22.90;99.90
62154;DHT22;48140;45.486;9.226;2023-07-22T02:11:02;22.90;99.90
62154;DHT22;48140;45.486;9.226;2023-07-22T02:13:29;23.00;99.90
62154;DHT22;48140;45.486;9.226;2023-07-22T02:15:55;22.90;99.90
62154;DHT22;48140;45.486;9.226;2023-07-22T02:18:20;23.00;99.90
62154;DHT22;48140;45.486;9.226;2023-07-22T02:20:46;23.00;99.90
62154;DHT22;48140;45.486;9.226;2023-07-22T02:23:11;23.00;99.90
62154;DHT22;48140;45.486;9.226;2023-07-22T02:25:37;23.00;99.90
62154;DHT22;48140;45.486;9.226;2023-07-22T02:28:02;23.10;99.90
62154;DHT22;48140;45.486;9.226;2023-07-22T02:30:28;23.00;99.90
62154;DHT22;48140;45.486;9.226;2023-07-22T02:32:53;23.00;99.90
62154;DHT22;48140;45.486;9.226;2023-07-22T02:35:19;23.00;99.90
62154;DHT22;48140;45.486;9.226;2023-07-22T02:37:44;23.00;99.90
62154;DHT22;48140;45.486;9.226;2023-07-22T02:40:10;22.90;99.90
62154;DHT22;48140;45.486;9.226;2023-07-22T02:42:36;22.90;99.90
62154;DHT22;48140;45.486;9.226;2023-07-22T02:45:02;22.90;99.90
62154;DHT22;48140;45.486;9.226;2023-07-22T02:47:29;22.90;99.90
62154;DHT22;48140;45.486;9.226;2023-07-22T02:49:55;22.90;99.90
62154;DHT22;48140;45.486;9.226;2023-07-22T02:52:21;22.90;99.90
62154;DHT22;48140;45.486;9.226;2023-07-22T02:55:03;22.90;99.90
62154;DHT22;48140;45.486;9.226;2023-07-22T02:57:29;22.90;99.90
62154;DHT22;48140;45.486;9.226;2023-07-22T02:59:54;22.90;99.90
62154;DHT22;48140;45.486;9.226;2023-07-22T03:02:20;22.90;99.90
62154;DHT22;48140;45.486;9.226;2023-07-22T03:04:45;22.90;99.90
62154;DHT22;48140;45.486;9.226;2023-07-22T03:07:11;22.90;99.90
62154;DHT22;48140;45.486;9.226;2023-07-22T03:09:36;22.90;99.90
62154;DHT22;48140;45.486;9.226;2023-07-22T03:12:02;22.90;99.90
62154;DHT22;48140;45.486;9.226;2023-07-22T03:14:28;22.90;99.90
62154;DHT22;48140;45.486;9.226;2023-07-22T03:16:53;22.90;99.90
62154;DHT22;48140;45.486;9.226;2023-07-22T03:19:19;22.90;99.90
62154;DHT22;48140;45.486;9.226;2023-07-22T03:21:44;22.90;99.90
62154;DHT22;48140;45.486;9.226;2023-07-22T03:24:10;22.90;99.90
62154;DHT22;48140;45.486;9.226;2023-07-22T03:26:35;22.90;99.90
62154;DHT22;48140;45.486;9.226;2023-07-22T03:29:01;22.80;99.90
62154;DHT22;48140;45.486;9.226;2023-07-22T03:31:26;22.80;99.90
62154;DHT22;48140;45.486;9.226;2023-07-22T03:33:52;22.80;99.90
62154;DHT22;48140;45.486;9.226;2023-07-22T03:36:17;22.80;99.90
62154;DHT22;48140;45.486;9.226;2023-07-22T03:38:43;22.80;99.90
62154;DHT22;48140;45.486;9.226;2023-07-22T03:41:08;22.90;99.90
62154;DHT22;48140;45.486;9.226;2023-07-22T03:43:34;22.90;99.90
62154;DHT22;48140;45.486;9.226;2023-07-22T03:45:59;22.90;99.90
62154;DHT22;48140;45.486;9.226;2023-07-22T03:48:25;23.00;99.90
62154;DHT22;48140;45.486;9.226;2023-07-22T03:50:50;23.00;99.90
62154;DHT22;48140;45.486;9.226;2023-07-22T03:53:16;23.00;99.90
62154;DHT22;48140;45.486;9.226;2023-07-22T03:55:42;23.00;99.90
62154;DHT22;48140;45.486;9.226;2023-07-22T03:58:07;23.00;99.90
62154;DHT22;48140;45.486;9.226;2023-07-22T04:00:33;23.10;99.90
62154;DHT22;48140;45.486;9.226;2023-07-22T04:02:58;23.10;99.90
62154;DHT22;48140;45.486;9.226;2023-07-22T04:05:24;23.10;99.90
62154;DHT22;48140;45.486;9.226;2023-07-22T04:07:49;23.10;99.90
62154;DHT22;48140;45.486;9.226;2023-07-22T04:10:15;23.10;99.90
62154;DHT22;48140;45.486;9.226;2023-07-22T04:12:40;23.10;99.90
62154;DHT22;48140;45.486;9.226;2023-07-22T04:15:06;23.20;99.90
62154;DHT22;48140;45.486;9.226;2023-07-22T04:17:32;23.20;99.90
62154;DHT22;48140;45.486;9.226;2023-07-22T04:19:57;23.20;99.90
62154;DHT22;48140;45.486;9.226;2023-07-22T04:22:23;23.20;99.90
62154;DHT22;48140;45.486;9.226;2023-07-22T04:24:48;23.30;99.90
62154;DHT22;48140;45.486;9.226;2023-07-22T04:27:14;23.30;99.90
62154;DHT22;48140;45.486;9.226;2023-07-22T04:29:41;23.30;99.90
62154;DHT22;48140;45.486;9.226;2023-07-22T04:32:07;23.30;99.90
62154;DHT22;48140;45.486;9.226;2023-07-22T04:34:33;23.30;99.90
62154;DHT22;48140;45.486;9.226;2023-07-22T04:36:59;23.40;99.90
62154;DHT22;48140;45.486;9.226;2023-07-22T04:39:25;23.30;99.90
62154;DHT22;48140;45.486;9.226;2023-07-22T04:41:50;23.40;99.90
62154;DHT22;48140;45.486;9.226;2023-07-22T04:44:16;23.50;99.90
62154;DHT22;48140;45.486;9.226;2023-07-22T04:46:42;23.60;99.90
62154;DHT22;48140;45.486;9.226;2023-07-22T04:49:08;23.60;99.90
62154;DHT22;48140;45.486;9.226;2023-07-22T04:51:34;23.70;99.90
62154;DHT22;48140;45.486;9.226;2023-07-22T04:53:59;23.70;99.90
62154;DHT22;48140;45.486;9.226;2023-07-22T04:56:25;23.70;99.90
62154;DHT22;48140;45.486;9.226;2023-07-22T04:58:50;23.70;99.90
62154;DHT22;48140;45.486;9.226;2023-07-22T05:01:16;23.70;99.90
62154;DHT22;48140;45.486;9.226;2023-07-22T05:03:41;23.70;99.90
62154;DHT22;48140;45.486;9.226;2023-07-22T05:06:08;23.80;99.80
62154;DHT22;48140;45.486;9.226;2023-07-22T05:08:34;23.70;99.60
62154;DHT22;48140;45.486;9.226;2023-07-22T05:10:59;23.70;99.60
62154;DHT22;48140;45.486;9.226;2023-07-22T05:13:25;23.80;99.60
62154;DHT22;48140;45.486;9.226;2023-07-22T05:15:51;23.90;99.50
62154;DHT22;48140;45.486;9.226;2023-07-22T05:18:16;23.80;99.70
62154;DHT22;48140;45.486;9.226;2023-07-22T05:20:42;23.70;99.50
62154;DHT22;48140;45.486;9.226;2023-07-22T05:23:07;23.90;99.20
62154;DHT22;48140;45.486;9.226;2023-07-22T05:25:33;23.90;98.70
62154;DHT22;48140;45.486;9.226;2023-07-22T05:27:58;24.00;98.60
62154;DHT22;48140;45.486;9.226;2023-07-22T05:30:24;24.00;98.40
62154;DHT22;48140;45.486;9.226;2023-07-22T05:32:52;24.00;98.10
62154;DHT22;48140;45.486;9.226;2023-07-22T05:35:18;24.10;97.90
62154;DHT22;48140;45.486;9.226;2023-07-22T05:37:44;24.10;97.70
62154;DHT22;48140;45.486;9.226;2023-07-22T05:40:10;24.20;97.80
62154;DHT22;48140;45.486;9.226;2023-07-22T05:42:35;24.20;97.80
62154;DHT22;48140;45.486;9.226;2023-07-22T05:45:02;24.20;97.60
62154;DHT22;48140;45.486;9.226;2023-07-22T05:47:27;24.20;97.70
62154;DHT22;48140;45.486;9.226;2023-07-22T05:49:53;24.10;97.70
62154;DHT22;48140;45.486;9.226;2023-07-22T05:52:19;24.00;98.40
62154;DHT22;48140;45.486;9.226;2023-07-22T05:54:44;24.10;98.20
62154;DHT22;48140;45.486;9.226;2023-07-22T05:57:10;24.20;97.90
62154;DHT22;48140;45.486;9.226;2023-07-22T05:59:35;24.30;97.90
62154;DHT22;48140;45.486;9.226;2023-07-22T06:02:04;24.40;97.60
62154;DHT22;48140;45.486;9.226;2023-07-22T06:04:30;24.50;97.50
62154;DHT22;48140;45.486;9.226;2023-07-22T06:06:56;24.40;97.50
62154;DHT22;48140;45.486;9.226;2023-07-22T06:09:22;24.50;97.60
62154;DHT22;48140;45.486;9.226;2023-07-22T06:11:48;24.70;97.30
62154;DHT22;48140;45.486;9.226;2023-07-22T06:14:13;24.80;97.20
62154;DHT22;48140;45.486;9.226;2023-07-22T06:16:39;25.00;96.70
62154;DHT22;48140;45.486;9.226;2023-07-22T06:19:04;25.10;96.40
62154;DHT22;48140;45.486;9.226;2023-07-22T06:21:30;24.90;96.90
62154;DHT22;48140;45.486;9.226;2023-07-22T06:23:55;25.10;96.40
62154;DHT22;48140;45.486;9.226;2023-07-22T06:26:21;25.20;96.50
62154;DHT22;48140;45.486;9.226;2023-07-22T06:28:47;25.10;96.50
62154;DHT22;48140;45.486;9.226;2023-07-22T06:31:13;25.20;95.50
62154;DHT22;48140;45.486;9.226;2023-07-22T06:33:38;25.40;95.00
62154;DHT22;48140;45.486;9.226;2023-07-22T06:36:04;25.40;94.10
62154;DHT22;48140;45.486;9.226;2023-07-22T06:38:30;25.50;94.20
62154;DHT22;48140;45.486;9.226;2023-07-22T06:40:55;25.50;94.20
62154;DHT22;48140;45.486;9.226;2023-07-22T06:43:21;25.50;94.10
62154;DHT22;48140;45.486;9.226;2023-07-22T06:45:47;25.70;93.90
62154;DHT22;48140;45.486;9.226;2023-07-22T06:48:12;25.80;93.70
62154;DHT22;48140;45.486;9.226;2023-07-22T06:50:38;25.80;93.50
62154;DHT22;48140;45.486;9.226;2023-07-22T06:53:03;25.90;93.10
62154;DHT22;48140;45.486;9.226;2023-07-22T06:55:29;26.00;93.00
62154;DHT22;48140;45.486;9.226;2023-07-22T06:57:57;26.10;93.10
62154;DHT22;48140;45.486;9.226;2023-07-22T07:00:23;26.20;93.30
62154;DHT22;48140;45.486;9.226;2023-07-22T07:02:49;26.40;92.80
62154;DHT22;48140;45.486;9.226;2023-07-22T07:05:15;26.40;92.90
62154;DHT22;48140;45.486;9.226;2023-07-22T07:07:42;26.60;92.70
62154;DHT22;48140;45.486;9.226;2023-07-22T07:10:08;26.60;92.30
62154;DHT22;48140;45.486;9.226;2023-07-22T07:12:36;26.60;92.30
62154;DHT22;48140;45.486;9.226;2023-07-22T07:15:02;26.70;92.00
62154;DHT22;48140;45.486;9.226;2023-07-22T07:17:27;26.70;92.00
62154;DHT22;48140;45.486;9.226;2023-07-22T07:19:53;26.90;92.10
62154;DHT22;48140;45.486;9.226;2023-07-22T07:22:19;27.00;91.60
62154;DHT22;48140;45.486;9.226;2023-07-22T07:24:44;27.20;91.40
62154;DHT22;48140;45.486;9.226;2023-07-22T07:27:10;27.30;90.90
62154;DHT22;48140;45.486;9.226;2023-07-22T07:29:35;27.50;90.60
62154;DHT22;48140;45.486;9.226;2023-07-22T07:32:01;27.60;90.10
62154;DHT22;48140;45.486;9.226;2023-07-22T07:34:27;27.70;90.10
62154;DHT22;48140;45.486;9.226;2023-07-22T07:36:52;27.80;89.10
62154;DHT22;48140;45.486;9.226;2023-07-22T07:39:18;27.90;89.00
62154;DHT22;48140;45.486;9.226;2023-07-22T07:41:43;27.90;88.30
62154;DHT22;48140;45.486;9.226;2023-07-22T07:44:09;28.10;87.70
62154;DHT22;48140;45.486;9.226;2023-07-22T07:46:34;28.00;87.60
62154;DHT22;48140;45.486;9.226;2023-07-22T07:49:01;27.80;88.30
62154;DHT22;48140;45.486;9.226;2023-07-22T07:51:27;27.80;88.50
62154;DHT22;48140;45.486;9.226;2023-07-22T07:53:53;27.60;89.00
62154;DHT22;48140;45.486;9.226;2023-07-22T07:56:19;27.50;89.60
62154;DHT22;48140;45.486;9.226;2023-07-22T07:58:46;27.30;90.20
62154;DHT22;48140;45.486;9.226;2023-07-22T08:01:12;27.00;90.50
62154;DHT22;48140;45.486;9.226;2023-07-22T08:03:38;26.80;91.10
62154;DHT22;48140;45.486;9.226;2023-07-22T08:06:04;26.50;91.50
62154;DHT22;48140;45.486;9.226;2023-07-22T08:08:29;26.30;91.90
62154;DHT22;48140;45.486;9.226;2023-07-22T08:10:58;25.80;92.80
62154;DHT22;48140;45.486;9.226;2023-07-22T08:13:24;25.70;93.10
62154;DHT22;48140;45.486;9.226;2023-07-22T08:15:51;25.50;93.90
62154;DHT22;48140;45.486;9.226;2023-07-22T08:18:16;25.40;94.50
62154;DHT22;48140;45.486;9.226;2023-07-22T08:20:42;25.30;95.30
62154;DHT22;48140;45.486;9.226;2023-07-22T08:23:07;25.20;95.40
62154;DHT22;48140;45.486;9.226;2023-07-22T08:25:33;25.10;96.50
62154;DHT22;48140;45.486;9.226;2023-07-22T08:27:58;25.00;96.90
62154;DHT22;48140;45.486;9.226;2023-07-22T08:30:24;24.90;96.60
62154;DHT22;48140;45.486;9.226;2023-07-22T08:32:50;24.80;97.00
62154;DHT22;48140;45.486;9.226;2023-07-22T08:35:15;24.80;98.10
62154;DHT22;48140;45.486;9.226;2023-07-22T08:37:43;24.70;97.90
62154;DHT22;48140;45.486;9.226;2023-07-22T08:40:09;24.70;98.30
62154;DHT22;48140;45.486;9.226;2023-07-22T08:42:35;24.70;98.40
62154;DHT22;48140;45.486;9.226;2023-07-22T08:45:00;24.60;98.10
62154;DHT22;48140;45.486;9.226;2023-07-22T08:47:26;24.60;99.10
62154;DHT22;48140;45.486;9.226;2023-07-22T08:49:54;24.60;99.60
62154;DHT22;48140;45.486;9.226;2023-07-22T08:52:22;24.60;97.80
62154;DHT22;48140;45.486;9.226;2023-07-22T08:54:48;24.60;97.10
62154;DHT22;48140;45.486;9.226;2023-07-22T08:57:14;24.60;96.60
62154;DHT22;48140;45.486;9.226;2023-07-22T08:59:40;24.70;97.60
62154;DHT22;48140;45.486;9.226;2023-07-22T09:02:07;24.70;98.60
62154;DHT22;48140;45.486;9.226;2023-07-22T09:04:35;24.70;98.20
62154;DHT22;48140;45.486;9.226;2023-07-22T09:07:01;24.80;98.30
62154;DHT22;48140;45.486;9.226;2023-07-22T09:09:27;25.00;98.00
62154;DHT22;48140;45.486;9.226;2023-07-22T09:11:52;25.20;97.10
62154;DHT22;48140;45.486;9.226;2023-07-22T09:14:20;25.50;96.90
62154;DHT22;48140;45.486;9.226;2023-07-22T09:16:46;25.90;95.90
62154;DHT22;48140;45.486;9.226;2023-07-22T09:19:11;26.10;94.80
62154;DHT22;48140;45.486;9.226;2023-07-22T09:21:37;26.50;94.40
62154;DHT22;48140;45.486;9.226;2023-07-22T09:24:18;26.80;93.50
62154;DHT22;48140;45.486;9.226;2023-07-22T09:26:44;27.00;92.90
62154;DHT22;48140;45.486;9.226;2023-07-22T09:29:10;27.50;93.20
62154;DHT22;48140;45.486;9.226;2023-07-22T09:31:44;27.60;91.90
62154;DHT22;48140;45.486;9.226;2023-07-22T09:34:13;27.90;92.00
62154;DHT22;48140;45.486;9.226;2023-07-22T09:37:11;28.10;91.30
62154;DHT22;48140;45.486;9.226;2023-07-22T09:39:30;28.00;90.60
62154;DHT22;48140;45.486;9.226;2023-07-22T09:41:56;28.00;91.20
62154;DHT22;48140;45.486;9.226;2023-07-22T09:44:29;28.30;91.20
62154;DHT22;48140;45.486;9.226;2023-07-22T09:46:54;28.50;90.00
62154;DHT22;48140;45.486;9.226;2023-07-22T09:49:20;28.80;88.90
62154;DHT22;48140;45.486;9.226;2023-07-22T09:51:46;28.90;85.40
62154;DHT22;48140;45.486;9.226;2023-07-22T09:54:12;29.00;87.20
62154;DHT22;48140;45.486;9.226;2023-07-22T09:56:44;29.20;85.30
62154;DHT22;48140;45.486;9.226;2023-07-22T09:59:10;29.10;83.40
62154;DHT22;48140;45.486;9.226;2023-07-22T10:01:37;29.10;84.70
62154;DHT22;48140;45.486;9.226;2023-07-22T10:04:03;29.40;83.20
62154;DHT22;48140;45.486;9.226;2023-07-22T10:06:29;29.60;80.90
62154;DHT22;48140;45.486;9.226;2023-07-22T10:08:56;29.70;79.40
62154;DHT22;48140;45.486;9.226;2023-07-22T10:11:25;29.90;79.00
62154;DHT22;48140;45.486;9.226;2023-07-22T10:13:52;30.10;78.60
62154;DHT22;48140;45.486;9.226;2023-07-22T10:16:18;30.20;76.20
62154;DHT22;48140;45.486;9.226;2023-07-22T10:18:43;30.30;76.40
62154;DHT22;48140;45.486;9.226;2023-07-22T10:21:11;30.30;75.10
62154;DHT22;48140;45.486;9.226;2023-07-22T10:23:38;30.30;75.30
62154;DHT22;48140;45.486;9.226;2023-07-22T10:26:03;30.60;74.60
62154;DHT22;48140;45.486;9.226;2023-07-22T10:28:30;30.80;73.80
62154;DHT22;48140;45.486;9.226;2023-07-22T10:30:55;30.90;73.10
62154;DHT22;48140;45.486;9.226;2023-07-22T10:33:22;31.10;72.30
62154;DHT22;48140;45.486;9.226;2023-07-22T10:36:02;31.00;71.80
62154;DHT22;48140;45.486;9.226;2023-07-22T10:38:31;30.50;74.50
62154;DHT22;48140;45.486;9.226;2023-07-22T10:40:58;30.60;75.30
62154;DHT22;48140;45.486;9.226;2023-07-22T10:43:34;30.80;74.40
62154;DHT22;48140;45.486;9.226;2023-07-22T10:46:05;30.80;72.60
62154;DHT22;48140;45.486;9.226;2023-07-22T10:48:35;30.70;72.60
62154;DHT22;48140;45.486;9.226;2023-07-22T10:51:20;30.80;72.40
62154;DHT22;48140;45.486;9.226;2023-07-22T10:53:46;31.00;72.00
62154;DHT22;48140;45.486;9.226;2023-07-22T10:56:16;31.00;72.00
62154;DHT22;48140;45.486;9.226;2023-07-22T11:04:09;31.20;71.60
62154;DHT22;48140;45.486;9.226;2023-07-22T11:11:59;31.40;70.50
62154;DHT22;48140;45.486;9.226;2023-07-22T11:14:26;31.20;71.60
62154;DHT22;48140;45.486;9.226;2023-07-22T11:16:51;31.10;72.50
62154;DHT22;48140;45.486;9.226;2023-07-22T11:19:18;31.10;72.60
62154;DHT22;48140;45.486;9.226;2023-07-22T11:21:44;31.10;72.00
62154;DHT22;48140;45.486;9.226;2023-07-22T11:24:09;31.40;72.00
62154;DHT22;48140;45.486;9.226;2023-07-22T11:26:35;31.60;70.10
62154;DHT22;48140;45.486;9.226;2023-07-22T11:29:01;31.70;70.00
62154;DHT22;48140;45.486;9.226;2023-07-22T11:31:33;32.00;68.40
62154;DHT22;48140;45.486;9.226;2023-07-22T11:33:59;32.20;67.30
62154;DHT22;48140;45.486;9.226;2023-07-22T11:36:28;32.40;66.70
62154;DHT22;48140;45.486;9.226;2023-07-22T11:38:54;32.30;66.50
62154;DHT22;48140;45.486;9.226;2023-07-22T11:41:20;32.20;66.00
62154;DHT22;48140;45.486;9.226;2023-07-22T11:43:45;31.80;67.30
62154;DHT22;48140;45.486;9.226;2023-07-22T11:46:11;31.60;68.40
62154;DHT22;48140;45.486;9.226;2023-07-22T11:48:36;31.70;67.70
62154;DHT22;48140;45.486;9.226;2023-07-22T11:51:02;31.90;67.80
62154;DHT22;48140;45.486;9.226;2023-07-22T11:53:30;32.10;67.60
62154;DHT22;48140;45.486;9.226;2023-07-22T11:55:55;32.00;65.80
62154;DHT22;48140;45.486;9.226;2023-07-22T11:58:27;32.00;65.90
62154;DHT22;48140;45.486;9.226;2023-07-22T12:01:05;31.60;65.60
62154;DHT22;48140;45.486;9.226;2023-07-22T12:03:32;31.80;65.40
62154;DHT22;48140;45.486;9.226;2023-07-22T12:06:00;31.70;66.90
62154;DHT22;48140;45.486;9.226;2023-07-22T12:08:25;31.80;66.70
62154;DHT22;48140;45.486;9.226;2023-07-22T12:11:00;31.80;65.50
62154;DHT22;48140;45.486;9.226;2023-07-22T12:13:26;32.20;64.90
62154;DHT22;48140;45.486;9.226;2023-07-22T12:16:01;32.50;62.50
62154;DHT22;48140;45.486;9.226;2023-07-22T12:18:27;32.80;60.30
62154;DHT22;48140;45.486;9.226;2023-07-22T12:20:52;33.10;60.70
62154;DHT22;48140;45.486;9.226;2023-07-22T12:23:18;33.50;57.20
62154;DHT22;48140;45.486;9.226;2023-07-22T12:25:44;33.30;58.10
62154;DHT22;48140;45.486;9.226;2023-07-22T12:28:09;33.30;57.10
62154;DHT22;48140;45.486;9.226;2023-07-22T12:30:36;33.20;57.80
62154;DHT22;48140;45.486;9.226;2023-07-22T12:33:02;33.50;58.40
62154;DHT22;48140;45.486;9.226;2023-07-22T12:35:27;33.70;57.10
62154;DHT22;48140;45.486;9.226;2023-07-22T12:37:53;33.80;56.50
62154;DHT22;48140;45.486;9.226;2023-07-22T12:40:18;34.10;54.80
62154;DHT22;48140;45.486;9.226;2023-07-22T12:42:44;34.20;54.20
62154;DHT22;48140;45.486;9.226;2023-07-22T12:45:12;34.50;53.20
62154;DHT22;48140;45.486;9.226;2023-07-22T12:47:38;34.40;52.30
62154;DHT22;48140;45.486;9.226;2023-07-22T12:50:04;34.50;52.10
62154;DHT22;48140;45.486;9.226;2023-07-22T12:52:30;34.70;51.00
62154;DHT22;48140;45.486;9.226;2023-07-22T12:54:55;35.00;50.10
62154;DHT22;48140;45.486;9.226;2023-07-22T12:57:21;35.00;48.50
62154;DHT22;48140;45.486;9.226;2023-07-22T12:59:46;34.60;48.80
62154;DHT22;48140;45.486;9.226;2023-07-22T13:02:12;34.60;49.80
62154;DHT22;48140;45.486;9.226;2023-07-22T13:04:37;34.70;49.70
62154;DHT22;48140;45.486;9.226;2023-07-22T13:07:03;34.80;49.60
62154;DHT22;48140;45.486;9.226;2023-07-22T13:09:29;35.00;49.90
62154;DHT22;48140;45.486;9.226;2023-07-22T13:11:54;35.10;49.70
62154;DHT22;48140;45.486;9.226;2023-07-22T13:14:20;34.50;49.40
62154;DHT22;48140;45.486;9.226;2023-07-22T13:16:46;33.90;52.20
62154;DHT22;48140;45.486;9.226;2023-07-22T13:19:11;34.10;53.40
62154;DHT22;48140;45.486;9.226;2023-07-22T13:21:37;34.00;51.70
62154;DHT22;48140;45.486;9.226;2023-07-22T13:24:02;33.80;51.90
62154;DHT22;48140;45.486;9.226;2023-07-22T13:26:28;34.00;52.30
62154;DHT22;48140;45.486;9.226;2023-07-22T13:28:53;34.40;51.00
62154;DHT22;48140;45.486;9.226;2023-07-22T13:31:19;34.80;49.50
62154;DHT22;48140;45.486;9.226;2023-07-22T13:33:45;35.10;48.60
62154;DHT22;48140;45.486;9.226;2023-07-22T13:36:10;35.20;48.20
62154;DHT22;48140;45.486;9.226;2023-07-22T13:38:35;35.40;47.90
62154;DHT22;48140;45.486;9.226;2023-07-22T13:41:01;35.50;48.30
62154;DHT22;48140;45.486;9.226;2023-07-22T13:43:26;35.60;48.00
62154;DHT22;48140;45.486;9.226;2023-07-22T13:45:53;35.60;47.60
62154;DHT22;48140;45.486;9.226;2023-07-22T13:48:19;35.60;48.50
62154;DHT22;48140;45.486;9.226;2023-07-22T13:50:44;35.80;47.70
62154;DHT22;48140;45.486;9.226;2023-07-22T13:53:10;35.90;48.00
62154;DHT22;48140;45.486;9.226;2023-07-22T13:55:35;35.80;47.90
62154;DHT22;48140;45.486;9.226;2023-07-22T13:58:01;35.70;47.10
62154;DHT22;48140;45.486;9.226;2023-07-22T14:00:26;36.00;46.70
62154;DHT22;48140;45.486;9.226;2023-07-22T14:02:52;36.20;46.50
62154;DHT22;48140;45.486;9.226;2023-07-22T14:05:17;36.30;46.00
62154;DHT22;48140;45.486;9.226;2023-07-22T14:07:43;36.10;45.70
62154;DHT22;48140;45.486;9.226;2023-07-22T14:10:08;36.20;46.00
62154;DHT22;48140;45.486;9.226;2023-07-22T14:12:34;36.00;46.50
62154;DHT22;48140;45.486;9.226;2023-07-22T14:15:00;36.00;45.70
62154;DHT22;48140;45.486;9.226;2023-07-22T14:17:25;35.80;47.00
62154;DHT22;48140;45.486;9.226;2023-07-22T14:19:51;35.70;46.90
62154;DHT22;48140;45.486;9.226;2023-07-22T14:22:16;35.60;47.50
62154;DHT22;48140;45.486;9.226;2023-07-22T14:24:42;35.50;47.40
62154;DHT22;48140;45.486;9.226;2023-07-22T14:27:07;35.50;48.00
62154;DHT22;48140;45.486;9.226;2023-07-22T14:29:33;35.50;47.90
62154;DHT22;48140;45.486;9.226;2023-07-22T14:31:58;35.40;49.20
62154;DHT22;48140;45.486;9.226;2023-07-22T14:34:24;35.20;49.60
62154;DHT22;48140;45.486;9.226;2023-07-22T14:36:49;35.50;49.20
62154;DHT22;48140;45.486;9.226;2023-07-22T14:39:15;35.70;48.60
62154;DHT22;48140;45.486;9.226;2023-07-22T14:41:41;35.80;49.30
62154;DHT22;48140;45.486;9.226;2023-07-22T14:44:08;36.10;47.60
62154;DHT22;48140;45.486;9.226;2023-07-22T14:46:34;35.80;48.10
62154;DHT22;48140;45.486;9.226;2023-07-22T14:48:59;36.00;47.20
62154;DHT22;48140;45.486;9.226;2023-07-22T14:51:25;36.10;47.20
62154;DHT22;48140;45.486;9.226;2023-07-22T14:53:50;36.00;47.50
62154;DHT22;48140;45.486;9.226;2023-07-22T14:56:16;35.80;47.00
62154;DHT22;48140;45.486;9.226;2023-07-22T14:58:42;35.90;47.50
62154;DHT22;48140;45.486;9.226;2023-07-22T15:01:08;36.00;46.60
62154;DHT22;48140;45.486;9.226;2023-07-22T15:03:34;35.90;47.50
62154;DHT22;48140;45.486;9.226;2023-07-22T15:06:00;35.80;47.40
62154;DHT22;48140;45.486;9.226;2023-07-22T15:08:25;35.70;47.60
62154;DHT22;48140;45.486;9.226;2023-07-22T15:10:51;35.90;48.00
62154;DHT22;48140;45.486;9.226;2023-07-22T15:13:16;35.90;46.80
62154;DHT22;48140;45.486;9.226;2023-07-22T15:15:42;35.70;48.20
62154;DHT22;48140;45.486;9.226;2023-07-22T15:18:07;35.90;47.30
62154;DHT22;48140;45.486;9.226;2023-07-22T15:20:33;36.00;46.20
62154;DHT22;48140;45.486;9.226;2023-07-22T15:22:58;36.10;46.20
62154;DHT22;48140;45.486;9.226;2023-07-22T15:25:24;36.10;46.70
62154;DHT22;48140;45.486;9.226;2023-07-22T15:27:50;36.10;46.60
62154;DHT22;48140;45.486;9.226;2023-07-22T15:30:15;36.00;47.50
62154;DHT22;48140;45.486;9.226;2023-07-22T15:32:41;35.80;46.50
62154;DHT22;48140;45.486;9.226;2023-07-22T15:35:08;35.40;48.50
62154;DHT22;48140;45.486;9.226;2023-07-22T15:37:33;35.00;50.00
62154;DHT22;48140;45.486;9.226;2023-07-22T15:39:59;35.20;50.80
62154;DHT22;48140;45.486;9.226;2023-07-22T15:42:25;35.40;49.90
62154;DHT22;48140;45.486;9.226;2023-07-22T15:44:50;35.30;49.90
62154;DHT22;48140;45.486;9.226;2023-07-22T15:47:16;35.20;50.90
62154;DHT22;48140;45.486;9.226;2023-07-22T15:49:41;35.30;51.40
62154;DHT22;48140;45.486;9.226;2023-07-22T15:52:08;35.20;50.90